A80 TRACON Summary / KATL TAF
ATL TRACON Summary:
A Low pressure system and associated warm front will continue to bring in plenty of low-level moisture through the afternoon. Expect showers and thunderstorms to persist with most of the activity to the west of ATL through 21z. LIFR/IFR ceilings will continue through the period. Surface winds will be from the east at 10-15kts. Flight Hazards: LGT-MOD Mixed Icing above 120 and LGT-MOD Turbulence below 140 with LLWS are expected in the TRACON airspace through the period.

Updated: 11/23/2014 12:30 PM
ATL Terminal Aerodrome Forecast:

FTUS80 KATL 240012 AAA
KATL 240011Z 2400/2506 19010KT 6SM BR BKN015
     FM240300 21010KT 3SM BR OVC004
     FM241500 24012G19KT P6SM BKN015 OVC030
     FM241700 25012G25KT P6SM SCT035
     FM242300 27009KT P6SM SCT160
ATL TRACON Area Remark:
ISOLATED TS EXPECTED ALL QUADS UNTIL 22Z.
Convective Gate Forecast / Icing Gate Forecast / Vertical Wind Profile (click on image to enlarge)
Convective Gate Forecast
Icing Gate Forecast
table with gate forecasts (convective and CCFP) used April - November while icing gate forecasts are issued
AIRMETs & SIGMETS/ Southeast Radar loop / Satellite Image (click on image to enlarge)

Southeast Radar Loop

 



USA.gov is the U.S. government's official web portal to all federal, state and local government web resources and services.